Brunswick, GA (31520)

1:56 PM EST on March 03, 2015 (GMT -0500)
Avalon Place | Change Station
CLOSE
Current Station
Personal Weather Station
Location: Brunswick, GA
Elevation: 43 ft
Nearby Weather Stations
Active Advisory: Flood Warning

Elev 43 ft 31.22 °N, 81.54 °W | Updated 23 seconds ago

Partly Cloudy
Partly Cloudy
78.4 °F
Feels Like 81 °F
N
3.1
Wind Variable Wind from NW
Gusts 6.9 mph

Today
High -- | Low -- °F
--% Chance of Precip.
Yesterday
High -- | Low -- °F
Precip. -- in
6:50 AM 6:25 PM
Waxing Gibbous, 97% visible
Pressure 30.18 in
Visibility 10.0 miles
Clouds Scattered Clouds 1800 ft
Heat Index 81 °F
Dew Point 70 °F
Humidity 75%
Rainfall 0.00 in
Snow Depth Not available.
UV 7 out of 12
Pollen 9.00 out of 12
Air Quality Not available.
Flu Activity Not available.
METAR KBQK 031835Z AUTO 18011G14KT 10SM SCT018 24/16 A3018 RMK AO1

More Conditions Fewer Conditions

Pressure 30.18 in
Visibility 10.0 miles
Clouds Scattered Clouds 1800 ft
Heat Index 81 °F
Dew Point 70 °F
Humidity 75%
Rainfall 0.00 in
Snow Depth Not available.
UV 7 out of 12
Pollen 9.00 out of 12
Air Quality Not available.
Flu Activity Not available.
METAR KBQK 031835Z AUTO 18011G14KT 10SM SCT018 24/16 A3018 RMK AO1

More Conditions Fewer Conditions

10-Day Weather Forecast

Almanac

Astronomy

Mar. 03, 2015 Rise Set
Actual Time
Civil Twilight
Nautical Twilight
Astronomical Twilight
Moon
Length of Visible Light
Length of Day
Tomorrow will be .
, % of the Moon is Illuminated

Today's Extremes

State Highs State Lows

Community

WunderPhotos

Upload Photos

1,802,198 photos uploaded!

WunderBlogs® & News

Nearby

Air Quality

  Air Quality AQ Index Pollutant
Not available.

Snow Depth

Station Depth Elevation

Earthquake Activity

City Distance Mag. Time & Date
Minimum magnitude displayed is 2.5.

Coastal Water Temperatures

Place Temperature

Nearby Weather Stations

Flood Warning
Statement as of 9:31 AM EST on March 03, 2015

The National Weather Service in Jacksonville FL has issued a

* Flood Warning for
the Altamaha river at Everett city.
* From Thursday evening until further notice... or until the warning
is cancelled.
* At 8:15 am Tuesday the stage was 10.6 feet.
* Minor flooding is forecast.
* Flood stage is 12.0 feet.
* Forecast... rise above flood stage by Thursday before midnight and
continue to rise to near 12.9 feet by Sunday early afternoon.
* Impact... at 12.0 feet... agricultural and Timber lands flooded. Water
begins to encroach upon Altamaha Park.
* Impact... at 10.0 feet... river begins coming out of channel banks
inundating low lying bottomlands.





               Fld observed 7am EST / 8am EDT forecast
location stg stg day time Wed Thu Fri Sat sun

Altamaha
Everett cit 12 10.6 Tue 08 am 11.0 11.6 12.2 12.7 12.9




Lat... Lon 3152 8172 3139 8162 3130 8144 3138 8142 3143 8155 3155 8162